Time;durP1;ratioP1;P1;durP2;ratioP2;P2;SDS_P1;SDS_P2;PMS_P1;PMS_P2;Temp;Humidity;BMP_temperature;BMP_pressure;BME280_temperature;BME280_humidity;BME280_pressure;Samples;Min_cycle;Max_cycle;Signal;HPM_P1;HPM_P2
2023/08/10 00:00:25;;;;;;;2.80;2.40;;;12.60;99.90;;;;;;5028196;28;20212;-79
2023/08/10 00:02:51;;;;;;;5.78;2.90;;;12.60;99.90;;;;;;5024546;28;20676;-84
2023/08/10 00:05:16;;;;;;;4.43;2.10;;;12.60;99.90;;;;;;5031531;28;20204;-79
2023/08/10 00:07:42;;;;;;;3.40;2.23;;;12.50;99.90;;;;;;5026377;28;20446;-80
2023/08/10 00:10:08;;;;;;;3.60;2.97;;;;;;;;;;5046266;28;20668;-79
2023/08/10 00:12:35;;;;;;;5.22;2.53;;;12.50;99.90;;;;;;5029205;28;20309;-79
2023/08/10 00:15:02;;;;;;;3.30;2.78;;;;;;;;;;5043023;28;20223;-82
2023/08/10 00:17:28;;;;;;;5.53;2.70;;;12.60;99.90;;;;;;5046226;28;20184;-79
2023/08/10 00:19:54;;;;;;;6.23;3.00;;;12.70;99.90;;;;;;5032232;28;20635;-78
2023/08/10 00:22:19;;;;;;;5.30;2.30;;;12.60;99.90;;;;;;5036022;28;20192;-81
2023/08/10 00:24:44;;;;;;;3.80;2.20;;;12.60;99.90;;;;;;5049501;28;22195;-82
2023/08/10 00:27:10;;;;;;;3.13;2.57;;;;;;;;;;5040852;28;20739;-83
2023/08/10 00:29:36;;;;;;;3.77;2.77;;;12.60;99.90;;;;;;5032883;28;20189;-83
2023/08/10 00:32:02;;;;;;;2.63;2.13;;;;;;;;;;5028647;28;22109;-84
2023/08/10 00:34:27;;;;;;;3.72;2.60;;;12.60;99.90;;;;;;5025490;28;20257;-83
2023/08/10 00:36:53;;;;;;;3.00;2.40;;;12.70;99.90;;;;;;5027693;28;20185;-83
2023/08/10 00:39:19;;;;;;;5.80;2.70;;;;;;;;;;5046184;28;20205;-86
2023/08/10 00:41:44;;;;;;;3.60;2.10;;;12.70;99.90;;;;;;5029964;28;20432;-81
2023/08/10 00:44:10;;;;;;;3.50;2.40;;;12.70;99.90;;;;;;5025362;28;20459;-83
2023/08/10 00:46:36;;;;;;;4.27;2.10;;;12.60;99.90;;;;;;5028180;28;20235;-82
2023/08/10 00:49:03;;;;;;;3.95;2.30;;;12.60;99.90;;;;;;5040158;28;20204;-84
2023/08/10 00:51:29;;;;;;;2.97;2.35;;;12.50;99.90;;;;;;5038587;28;20294;-81
2023/08/10 00:53:55;;;;;;;4.63;2.67;;;12.40;99.90;;;;;;5017596;28;20204;-80
2023/08/10 00:56:20;;;;;;;5.40;2.77;;;12.30;99.90;;;;;;5039877;28;22565;-83
2023/08/10 00:58:47;;;;;;;4.80;2.30;;;12.30;99.90;;;;;;5025595;28;20201;-82
2023/08/10 01:01:13;;;;;;;4.30;2.78;;;12.20;99.90;;;;;;5033582;28;20295;-82
2023/08/10 01:03:38;;;;;;;6.10;2.80;;;12.20;99.90;;;;;;5045477;28;20208;-83
2023/08/10 01:06:23;;;;;;;10.77;2.93;;;12.20;99.90;;;;;;5042216;28;20767;-80
2023/08/10 01:09:07;;;;;;;4.65;2.47;;;12.20;99.90;;;;;;5030261;28;20197;-83
2023/08/10 01:12:20;;;;;;;4.65;2.65;;;12.20;99.90;;;;;;5026660;28;20226;-82
2023/08/10 01:14:50;;;;;;;6.75;3.45;;;12.20;99.90;;;;;;4984069;28;20219;-83
2023/08/10 01:17:23;;;;;;;4.47;3.60;;;12.20;99.90;;;;;;5024853;28;20307;-84
2023/08/10 01:19:52;;;;;;;4.90;3.78;;;12.30;99.90;;;;;;5027372;28;20208;-81
2023/08/10 01:22:48;;;;;;;5.32;3.67;;;12.60;99.90;;;;;;5044050;28;20279;-81
2023/08/10 01:25:16;;;;;;;4.95;3.35;;;12.40;99.90;;;;;;5023863;28;20286;-84
2023/08/10 01:27:43;;;;;;;6.53;3.53;;;12.30;99.90;;;;;;5039173;28;20188;-81
2023/08/10 01:30:09;;;;;;;3.10;2.80;;;12.30;99.90;;;;;;5043421;28;20581;-83
2023/08/10 01:32:35;;;;;;;4.80;3.40;;;12.40;99.90;;;;;;5026808;28;20443;-81
2023/08/10 01:35:01;;;;;;;7.67;2.87;;;12.40;99.90;;;;;;5045751;28;20465;-84
2023/08/10 01:37:27;;;;;;;4.40;3.10;;;12.40;99.90;;;;;;5052662;28;20188;-84
2023/08/10 01:39:52;;;;;;;3.17;2.73;;;12.40;99.90;;;;;;5049375;28;20296;-84
2023/08/10 01:42:18;;;;;;;3.70;3.03;;;12.40;99.90;;;;;;5030786;28;20514;-84
2023/08/10 01:44:44;;;;;;;4.70;3.13;;;12.40;99.90;;;;;;5027330;28;20722;-82
2023/08/10 01:47:56;;;;;;;4.10;3.13;;;12.40;99.90;;;;;;5024480;28;20216;-81
2023/08/10 01:50:26;;;;;;;4.07;3.47;;;12.40;99.90;;;;;;4988640;28;20200;-82
2023/08/10 01:52:58;;;;;;;5.63;2.90;;;12.40;99.90;;;;;;5050757;28;20429;-83
2023/08/10 01:55:24;;;;;;;4.83;3.67;;;12.40;99.90;;;;;;5046277;28;21078;-85
2023/08/10 01:57:50;;;;;;;6.07;3.10;;;12.40;99.90;;;;;;5041741;28;20435;-82
2023/08/10 02:00:16;;;;;;;5.00;3.40;;;;;;;;;;5028763;28;20219;-81
2023/08/10 02:02:42;;;;;;;4.75;3.08;;;;;;;;;;5026159;28;20455;-79
2023/08/10 02:05:10;;;;;;;6.50;3.20;;;12.30;99.90;;;;;;5021992;28;20454;-81
2023/08/10 02:07:35;;;;;;;9.50;4.40;;;12.20;99.90;;;;;;5048375;28;20423;-82
2023/08/10 02:10:01;;;;;;;4.63;3.30;;;12.20;99.90;;;;;;5034542;28;21312;-83
2023/08/10 02:12:27;;;;;;;5.30;3.30;;;12.20;99.90;;;;;;5044950;28;20188;-83
2023/08/10 02:14:52;;;;;;;3.53;3.23;;;12.20;99.90;;;;;;5034414;28;20205;-81
2023/08/10 02:17:18;;;;;;;4.23;3.60;;;12.20;99.90;;;;;;5045273;28;20185;-81
2023/08/10 02:19:43;;;;;;;6.00;3.07;;;12.20;99.90;;;;;;5047109;28;20613;-85
2023/08/10 02:22:09;;;;;;;6.20;3.73;;;12.40;99.90;;;;;;5049941;28;20649;-82
2023/08/10 02:24:35;;;;;;;3.30;2.80;;;12.10;99.90;;;;;;5031769;28;20208;-82
2023/08/10 02:27:01;;;;;;;7.07;3.50;;;12.10;99.90;;;;;;5037316;28;21240;-83
2023/08/10 02:29:26;;;;;;;7.03;3.50;;;12.10;99.90;;;;;;5027563;28;20193;-82
2023/08/10 02:31:52;;;;;;;18.43;3.93;;;12.10;99.90;;;;;;5027037;28;20200;-82
2023/08/10 02:34:17;;;;;;;3.97;3.43;;;12.10;99.90;;;;;;5032278;28;20204;-84
2023/08/10 02:36:43;;;;;;;5.30;3.93;;;12.10;99.90;;;;;;5025390;28;20197;-81
2023/08/10 02:39:09;;;;;;;10.47;3.93;;;12.10;99.90;;;;;;5028199;28;20259;-80
2023/08/10 02:41:35;;;;;;;4.38;3.15;;;12.40;99.90;;;;;;5027903;28;20192;-82
2023/08/10 02:44:00;;;;;;;4.50;3.17;;;12.00;99.90;;;;;;5047803;28;20394;-82
2023/08/10 02:46:26;;;;;;;5.87;3.90;;;12.00;99.90;;;;;;5035255;28;20691;-84
2023/08/10 02:48:54;;;;;;;5.63;2.77;;;12.00;99.90;;;;;;5032427;28;20230;-81
2023/08/10 02:51:19;;;;;;;4.80;3.15;;;11.90;99.90;;;;;;5046781;28;20434;-79
2023/08/10 02:53:45;;;;;;;4.40;3.60;;;11.90;99.90;;;;;;5041041;28;20213;-80
2023/08/10 02:56:11;;;;;;;4.10;3.37;;;11.90;99.90;;;;;;5044658;28;20189;-82
2023/08/10 02:58:36;;;;;;;4.90;3.37;;;11.80;99.90;;;;;;5040697;28;20189;-80
2023/08/10 03:01:08;;;;;;;4.17;3.50;;;11.70;99.90;;;;;;5044509;28;20212;-81
2023/08/10 03:03:34;;;;;;;5.70;3.20;;;11.60;99.90;;;;;;5033114;28;20224;-81
2023/08/10 03:06:01;;;;;;;5.30;3.90;;;11.60;99.90;;;;;;5021499;28;20277;-82
2023/08/10 03:08:27;;;;;;;5.88;4.20;;;11.60;99.90;;;;;;5032041;28;20675;-84
2023/08/10 03:10:53;;;;;;;7.20;4.20;;;11.50;99.90;;;;;;5038341;28;20181;-80
2023/08/10 03:13:19;;;;;;;5.05;3.75;;;;;;;;;;5041120;28;20191;-79
2023/08/10 03:15:45;;;;;;;5.43;3.73;;;11.50;99.90;;;;;;5026413;28;20185;-82
2023/08/10 03:18:10;;;;;;;5.60;3.53;;;11.60;99.90;;;;;;5040966;28;20495;-80
2023/08/10 03:20:35;;;;;;;6.03;4.23;;;11.60;99.90;;;;;;5025596;28;23467;-84
2023/08/10 03:23:01;;;;;;;7.20;4.17;;;11.60;99.90;;;;;;5040773;28;20180;-83
2023/08/10 03:25:27;;;;;;;5.00;4.00;;;11.60;99.90;;;;;;5028254;28;20196;-81
2023/08/10 03:27:52;;;;;;;8.40;4.90;;;11.60;99.90;;;;;;5025345;28;20181;-83
2023/08/10 03:30:18;;;;;;;6.60;4.87;;;11.70;99.90;;;;;;5029695;28;20196;-82
2023/08/10 03:32:43;;;;;;;5.77;4.17;;;11.70;99.90;;;;;;5020507;28;20955;-79
2023/08/10 03:35:10;;;;;;;10.50;5.83;;;11.60;99.90;;;;;;5038448;28;20572;-80
2023/08/10 03:37:35;;;;;;;8.55;5.35;;;11.50;99.90;;;;;;5025317;28;20655;-82
2023/08/10 03:40:01;;;;;;;13.53;5.50;;;11.50;99.90;;;;;;5031136;28;20219;-79
2023/08/10 03:42:27;;;;;;;10.70;6.40;;;11.50;99.90;;;;;;5044543;28;21402;-84
2023/08/10 03:44:55;;;;;;;8.07;5.57;;;11.50;99.90;;;;;;5039912;28;20250;-82
2023/08/10 03:47:21;;;;;;;8.43;5.20;;;11.60;99.90;;;;;;5039934;28;20211;-82
2023/08/10 03:49:46;;;;;;;8.20;5.53;;;11.60;99.90;;;;;;5049477;28;20435;-84
2023/08/10 03:52:12;;;;;;;7.90;5.00;;;11.60;99.90;;;;;;5030744;28;20203;-81
2023/08/10 03:54:37;;;;;;;7.60;5.10;;;11.60;99.90;;;;;;5020014;28;20223;-82
2023/08/10 03:57:03;;;;;;;6.67;5.60;;;11.60;99.90;;;;;;5021783;28;20210;-82
2023/08/10 03:59:28;;;;;;;11.53;6.70;;;11.60;99.90;;;;;;5024986;28;20262;-84
2023/08/10 04:01:54;;;;;;;11.03;5.67;;;11.60;99.90;;;;;;5020494;28;20193;-83
2023/08/10 04:04:19;;;;;;;6.63;5.37;;;11.70;99.90;;;;;;5025742;28;20216;-80
2023/08/10 04:06:45;;;;;;;8.73;5.53;;;11.60;99.90;;;;;;5025009;28;20212;-81
2023/08/10 04:09:11;;;;;;;12.30;6.50;;;11.60;99.90;;;;;;5025875;28;20956;-80
2023/08/10 04:11:36;;;;;;;8.10;5.90;;;11.60;99.90;;;;;;5034241;28;20216;-81
2023/08/10 04:14:02;;;;;;;10.13;6.20;;;11.70;99.90;;;;;;5047424;28;20305;-81
2023/08/10 04:16:27;;;;;;;10.40;6.30;;;11.70;99.90;;;;;;5023507;28;20193;-81
2023/08/10 04:18:53;;;;;;;10.90;7.40;;;11.60;99.90;;;;;;5017442;28;20204;-84
2023/08/10 04:21:18;;;;;;;14.30;7.27;;;11.70;99.90;;;;;;5039205;28;20338;-81
2023/08/10 04:23:44;;;;;;;7.43;5.90;;;11.80;99.90;;;;;;5029094;28;20194;-82
2023/08/10 04:26:10;;;;;;;7.47;5.00;;;11.80;99.90;;;;;;5024783;28;20273;-82
2023/08/10 04:28:35;;;;;;;6.43;4.90;;;11.90;99.90;;;;;;5021573;28;20253;-80
2023/08/10 04:31:01;;;;;;;14.50;5.00;;;11.80;99.90;;;;;;5021477;28;20212;-84
2023/08/10 04:33:27;;;;;;;8.00;4.97;;;11.60;99.90;;;;;;5024723;28;20201;-82
2023/08/10 04:35:52;;;;;;;7.20;5.15;;;11.60;99.90;;;;;;5038108;28;20203;-82
2023/08/10 04:38:18;;;;;;;9.10;4.90;;;11.60;99.90;;;;;;5023663;28;20246;-82
2023/08/10 04:40:44;;;;;;;15.80;5.30;;;11.70;99.90;;;;;;5027624;28;20310;-80
2023/08/10 04:43:09;;;;;;;6.23;5.10;;;11.80;99.90;;;;;;5046911;28;20254;-82
2023/08/10 04:45:35;;;;;;;7.47;5.40;;;11.90;99.90;;;;;;5046010;28;20195;-83
2023/08/10 04:48:00;;;;;;;6.70;5.33;;;12.10;99.90;;;;;;5046041;28;20285;-84
2023/08/10 04:50:26;;;;;;;10.60;6.50;;;12.20;99.90;;;;;;5039963;28;20192;-84
2023/08/10 04:52:52;;;;;;;25.80;8.43;;;12.30;99.90;;;;;;5026811;28;20185;-82
2023/08/10 04:55:18;;;;;;;78.20;10.70;;;12.50;99.90;;;;;;5029911;28;20205;-80
2023/08/10 04:57:43;;;;;;;132.70;15.40;;;13.00;99.90;;;;;;5030246;28;20184;-84
2023/08/10 05:00:12;;;;;;;120.90;11.37;;;14.10;99.90;;;;;;5045117;28;20455;-84
2023/08/10 05:02:38;;;;;;;9.00;5.50;;;15.10;99.90;;;;;;5059567;28;20193;-79
2023/08/10 05:05:08;;;;;;;6.87;4.23;;;16.00;99.90;;;;;;5070719;28;20499;-80
2023/08/10 05:07:34;;;;;;;3.57;2.83;;;16.80;99.90;;;;;;5051807;28;20427;-85
2023/08/10 05:10:04;;;;;;;5.00;3.23;;;17.00;99.90;;;;;;5032617;28;20496;-80
2023/08/10 05:12:30;;;;;;;8.53;3.43;;;;;;;;;;5050521;28;20211;-79
2023/08/10 05:14:56;;;;;;;4.17;3.30;;;18.90;99.90;;;;;;5030760;28;20455;-84
2023/08/10 05:17:22;;;;;;;2.63;2.43;;;;;;;;;;5052887;28;20434;-82
2023/08/10 05:19:48;;;;;;;3.70;2.57;;;22.40;99.90;;;;;;5029409;28;20218;-84
2023/08/10 05:22:13;;;;;;;3.83;3.43;;;24.00;99.90;;;;;;5049764;28;20439;-84
2023/08/10 05:24:39;;;;;;;3.77;2.80;;;25.10;99.90;;;;;;5031519;28;20204;-84
2023/08/10 05:27:05;;;;;;;4.93;2.97;;;26.40;99.90;;;;;;5034932;28;20283;-82
2023/08/10 05:29:31;;;;;;;6.67;4.30;;;;;;;;;;5030865;28;20476;-81
2023/08/10 05:31:57;;;;;;;7.97;5.13;;;;;;;;;;5029531;28;21290;-82
2023/08/10 05:34:22;;;;;;;4.57;4.13;;;24.40;99.90;;;;;;5044293;28;20608;-82
2023/08/10 05:36:48;;;;;;;4.27;3.87;;;23.50;99.90;;;;;;5048782;28;20497;-83
2023/08/10 05:39:14;;;;;;;5.47;4.80;;;22.20;99.90;;;;;;5049066;28;20291;-83
2023/08/10 05:41:39;;;;;;;6.63;4.20;;;22.10;99.90;;;;;;5040208;28;20274;-84
2023/08/10 05:44:05;;;;;;;7.10;5.40;;;22.20;99.90;;;;;;5042839;28;20196;-80
2023/08/10 05:46:31;;;;;;;5.40;4.90;;;21.90;99.90;;;;;;5061026;28;20195;-83
2023/08/10 05:48:56;;;;;;;6.23;5.17;;;21.40;99.90;;;;;;5052927;28;20371;-80
2023/08/10 05:51:22;;;;;;;10.83;5.87;;;20.50;99.90;;;;;;5043597;28;20185;-84
2023/08/10 05:53:48;;;;;;;8.67;6.60;;;19.40;99.90;;;;;;5036033;28;20208;-80
2023/08/10 05:56:13;;;;;;;8.17;6.37;;;19.00;99.90;;;;;;5037872;28;20426;-81
2023/08/10 05:58:39;;;;;;;9.10;6.40;;;18.20;99.90;;;;;;5036490;28;20185;-84
2023/08/10 06:01:05;;;;;;;8.13;5.50;;;17.80;99.90;;;;;;5031369;28;20189;-83
2023/08/10 06:03:30;;;;;;;15.40;6.60;;;17.30;99.90;;;;;;5026528;28;20455;-80
2023/08/10 06:05:56;;;;;;;9.20;6.20;;;16.90;99.90;;;;;;5038727;28;20462;-84
2023/08/10 06:08:22;;;;;;;7.77;6.13;;;16.80;99.90;;;;;;5047292;28;20181;-82
2023/08/10 06:10:50;;;;;;;8.73;5.73;;;16.60;99.90;;;;;;5050978;28;20177;-84
2023/08/10 06:13:18;;;;;;;9.70;6.10;;;16.50;99.90;;;;;;5028363;28;20841;-82
2023/08/10 06:15:46;;;;;;;13.60;6.17;;;16.40;99.90;;;;;;5047018;28;20986;-80
2023/08/10 06:18:12;;;;;;;7.60;5.13;;;16.50;99.90;;;;;;5043989;28;20438;-84
2023/08/10 06:20:37;;;;;;;8.73;5.20;;;16.70;99.90;;;;;;5038877;28;20474;-85
2023/08/10 06:23:03;;;;;;;9.07;4.97;;;16.80;99.90;;;;;;5035439;28;20553;-83
2023/08/10 06:25:30;;;;;;;8.20;5.60;;;16.90;99.90;;;;;;5045470;28;20201;-82
2023/08/10 06:27:57;;;;;;;9.47;6.03;;;16.80;99.90;;;;;;5046267;28;20435;-82
2023/08/10 06:30:23;;;;;;;8.47;4.93;;;16.90;99.90;;;;;;5040531;28;20431;-81
2023/08/10 06:32:49;;;;;;;8.40;6.17;;;16.70;99.90;;;;;;5045572;28;20450;-84
2023/08/10 06:35:14;;;;;;;8.03;5.40;;;16.60;99.90;;;;;;5044141;28;20208;-84
2023/08/10 06:37:40;;;;;;;10.17;7.07;;;16.20;99.90;;;;;;5038867;28;20181;-80
2023/08/10 06:40:08;;;;;;;7.43;6.07;;;16.00;99.90;;;;;;5052215;28;20201;-80
2023/08/10 06:42:35;;;;;;;9.10;6.30;;;16.00;99.90;;;;;;5050529;28;20427;-82
2023/08/10 06:45:01;;;;;;;7.13;5.80;;;15.80;99.90;;;;;;5030685;28;20458;-83
2023/08/10 06:47:27;;;;;;;9.43;5.60;;;15.90;99.90;;;;;;5045934;28;20424;-81
2023/08/10 06:49:52;;;;;;;8.23;5.90;;;16.10;99.90;;;;;;5029281;28;20431;-83
2023/08/10 06:52:18;;;;;;;6.83;5.77;;;16.50;99.90;;;;;;5021698;28;20204;-81
2023/08/10 06:54:43;;;;;;;8.80;6.20;;;16.60;99.90;;;;;;5026686;28;20216;-80
2023/08/10 06:57:09;;;;;;;5.60;4.80;;;;;;;;;;5035328;28;20565;-82
2023/08/10 06:59:35;;;;;;;6.97;5.63;;;17.00;99.90;;;;;;5037880;28;20318;-83
2023/08/10 07:02:01;;;;;;;6.87;4.97;;;;;;;;;;5037424;28;20559;-83
2023/08/10 07:04:27;;;;;;;7.43;4.67;;;17.40;99.90;;;;;;5033579;28;20265;-84
2023/08/10 07:06:53;;;;;;;8.87;4.33;;;17.90;99.90;;;;;;5034623;28;20938;-83
2023/08/10 07:09:19;;;;;;;7.20;5.10;;;18.50;99.90;;;;;;5029661;28;20674;-85
2023/08/10 07:11:45;;;;;;;4.90;3.80;;;18.50;99.90;;;;;;5032877;28;20443;-84
2023/08/10 07:14:10;;;;;;;8.13;4.50;;;18.70;99.90;;;;;;5049629;28;20212;-84
2023/08/10 07:16:36;;;;;;;4.63;4.10;;;18.40;99.90;;;;;;5043141;28;20181;-82
2023/08/10 07:19:02;;;;;;;4.40;4.00;;;18.30;99.90;;;;;;5042837;28;20675;-81
2023/08/10 07:21:27;;;;;;;7.40;3.80;;;18.50;99.90;;;;;;5042675;28;20173;-82
2023/08/10 07:23:53;;;;;;;9.43;4.63;;;18.40;99.90;;;;;;5033461;28;20607;-84
2023/08/10 07:26:19;;;;;;;5.53;4.20;;;18.70;99.90;;;;;;5047146;28;20184;-84
2023/08/10 07:28:45;;;;;;;4.37;3.93;;;18.70;99.90;;;;;;5044625;28;20180;-82
2023/08/10 07:31:11;;;;;;;6.10;4.10;;;18.90;99.90;;;;;;5034966;28;20422;-82
2023/08/10 07:33:37;;;;;;;7.57;4.60;;;18.90;99.90;;;;;;5027949;28;20454;-83
2023/08/10 07:36:03;;;;;;;4.40;4.00;;;19.00;99.90;;;;;;5030623;28;20496;-83
2023/08/10 07:38:29;;;;;;;6.33;3.60;;;;;;;;;;5046385;28;20525;-83
2023/08/10 07:40:54;;;;;;;3.60;3.30;;;19.80;99.90;;;;;;5045392;28;20473;-82
2023/08/10 07:43:20;;;;;;;5.77;4.17;;;20.30;99.90;;;;;;5039908;28;20473;-79
2023/08/10 07:45:47;;;;;;;6.10;3.57;;;21.10;99.90;;;;;;5072514;28;20216;-83
2023/08/10 07:48:12;;;;;;;6.27;3.50;;;;;;;;;;5050354;28;20191;-83
2023/08/10 07:50:38;;;;;;;5.27;3.07;;;21.70;99.90;;;;;;5035693;28;20420;-82
2023/08/10 07:53:04;;;;;;;6.40;3.60;;;22.50;99.90;;;;;;5033192;28;20632;-82
2023/08/10 07:55:30;;;;;;;3.30;2.93;;;23.50;99.90;;;;;;5031422;28;20773;-82
2023/08/10 07:57:55;;;;;;;4.30;3.40;;;24.10;99.90;;;;;;5030241;28;20700;-82
2023/08/10 08:00:21;;;;;;;4.10;3.20;;;;;;;;;;5046757;28;20209;-85
2023/08/10 08:02:49;;;;;;;6.43;2.53;;;25.90;99.90;;;;;;5031225;28;20195;-84
2023/08/10 08:05:16;;;;;;;5.17;3.03;;;26.70;99.90;;;;;;5031952;28;20468;-80
2023/08/10 08:07:42;;;;;;;9.20;3.00;;;28.40;99.90;;;;;;5031157;28;20440;-82
2023/08/10 08:10:08;;;;;;;7.90;3.10;;;30.50;99.90;;;;;;5031416;28;20437;-84
2023/08/10 08:12:34;;;;;;;3.00;2.40;;;;;;;;;;5025349;28;20492;-84
2023/08/10 08:15:01;;;;;;;2.70;2.50;;;33.00;94.60;;;;;;5029334;28;20205;-81
2023/08/10 08:17:27;;;;;;;3.20;2.27;;;;;;;;;;5028058;28;20526;-82
2023/08/10 08:19:56;;;;;;;4.23;2.93;;;;;;;;;;5030497;28;20475;-82
2023/08/10 08:22:22;;;;;;;2.70;2.50;;;35.50;77.80;;;;;;5031555;28;20465;-83
2023/08/10 08:24:51;;;;;;;3.20;2.70;;;;;;;;;;5055380;28;20477;-84
2023/08/10 08:27:17;;;;;;;4.30;2.13;;;;;;;;;;5029542;28;20445;-81
2023/08/10 08:29:42;;;;;;;2.40;2.20;;;;;;;;;;5034503;28;20459;-84
2023/08/10 08:32:08;;;;;;;3.63;2.53;;;;;;;;;;5049169;28;20431;-82
2023/08/10 08:34:36;;;;;;;3.00;2.20;;;;;;;;;;5032391;28;20452;-84
2023/08/10 08:37:01;;;;;;;3.60;2.60;;;34.20;76.60;;;;;;5050905;28;20531;-84
2023/08/10 08:39:27;;;;;;;3.83;2.30;;;;;;;;;;5032496;28;20454;-83
2023/08/10 08:41:54;;;;;;;4.07;2.07;;;33.00;80.70;;;;;;5027909;28;20688;-85
2023/08/10 08:44:21;;;;;;;4.23;2.20;;;;;;;;;;5047582;28;20462;-84
2023/08/10 08:46:48;;;;;;;3.33;2.63;;;36.30;71.10;;;;;;5040899;28;22392;-84
2023/08/10 08:49:15;;;;;;;2.87;2.10;;;37.30;65.70;;;;;;5056274;28;20445;-82
2023/08/10 08:51:41;;;;;;;2.30;2.10;;;;;;;;;;5041759;28;21259;-85
2023/08/10 08:54:07;;;;;;;3.67;2.47;;;;;;;;;;5049160;28;20540;-83
2023/08/10 08:56:33;;;;;;;6.03;2.30;;;;;;;;;;5036038;28;20561;-87
2023/08/10 08:58:59;;;;;;;2.10;1.90;;;;;;;;;;5035370;28;20500;-85
2023/08/10 09:01:25;;;;;;;2.43;2.17;;;;;;;;;;5041636;28;20847;-85
2023/08/10 09:03:51;;;;;;;2.40;1.90;;;;;;;;;;5052393;28;20897;-82
2023/08/10 09:06:17;;;;;;;2.90;1.90;;;39.50;53.70;;;;;;5036617;28;20430;-88
2023/08/10 09:08:42;;;;;;;5.07;2.00;;;38.60;53.20;;;;;;5036553;28;20430;-84
2023/08/10 09:11:08;;;;;;;8.73;2.13;;;;;;;;;;5052472;28;20181;-83
2023/08/10 09:13:35;;;;;;;3.90;2.17;;;;;;;;;;5032018;28;21163;-84
2023/08/10 09:16:11;;;;;;;2.40;2.20;;;38.10;52.10;;;;;;5051547;28;20437;-83
2023/08/10 09:18:43;;;;;;;3.47;1.80;;;36.90;53.60;;;;;;5040873;28;20528;-83
2023/08/10 09:21:18;;;;;;;3.03;2.37;;;36.50;57.50;;;;;;5052334;28;20433;-83
2023/08/10 09:23:46;;;;;;;5.67;2.70;;;35.30;55.30;;;;;;5045005;28;20472;-83
2023/08/10 09:26:15;;;;;;;4.20;2.47;;;35.20;55.80;;;;;;5027730;28;20436;-82
2023/08/10 09:28:41;;;;;;;3.33;2.30;;;35.00;57.80;;;;;;5032896;28;20427;-81
2023/08/10 09:31:08;;;;;;;2.93;1.83;;;35.40;57.50;;;;;;5034233;28;20436;-82
2023/08/10 09:33:35;;;;;;;2.80;2.60;;;36.20;54.40;;;;;;5033915;28;21151;-81
2023/08/10 09:36:02;;;;;;;8.57;2.70;;;35.70;55.70;;;;;;5030478;28;20480;-81
2023/08/10 09:38:28;;;;;;;5.13;2.70;;;35.70;56.20;;;;;;5034574;28;20448;-81
2023/08/10 09:41:06;;;;;;;6.50;3.63;;;34.80;56.40;;;;;;5033942;28;20995;-85
2023/08/10 09:43:32;;;;;;;2.50;2.30;;;;;;;;;;5037034;28;20193;-83
2023/08/10 09:46:04;;;;;;;2.60;2.20;;;35.20;56.70;;;;;;5052292;28;20447;-83
2023/08/10 09:48:34;;;;;;;2.87;2.13;;;35.10;57.80;;;;;;5035119;28;20920;-83
2023/08/10 09:51:02;;;;;;;2.43;2.20;;;34.10;56.90;;;;;;5052021;28;20678;-82
2023/08/10 09:53:28;;;;;;;4.60;2.80;;;34.30;57.50;;;;;;5051456;28;21161;-83
2023/08/10 09:55:54;;;;;;;3.37;2.40;;;;;;;;;;5047201;28;20435;-82
2023/08/10 09:58:20;;;;;;;2.47;2.20;;;34.10;58.90;;;;;;5049618;28;20186;-83
2023/08/10 10:00:46;;;;;;;3.40;2.40;;;;;;;;;;5032287;28;21321;-85
2023/08/10 10:03:12;;;;;;;5.07;2.83;;;32.00;65.90;;;;;;5029882;28;20290;-81
2023/08/10 10:05:38;;;;;;;3.70;2.90;;;32.00;61.60;;;;;;5047944;28;20529;-83
2023/08/10 10:08:04;;;;;;;3.90;2.30;;;33.40;61.80;;;;;;5043406;28;20221;-83
2023/08/10 10:10:30;;;;;;;6.97;2.43;;;34.40;56.40;;;;;;5041868;28;20263;-81
2023/08/10 10:12:56;;;;;;;8.07;3.20;;;;;;;;;;5039682;28;20441;-84
2023/08/10 10:15:24;;;;;;;3.43;2.20;;;34.40;56.90;;;;;;5051118;28;20462;-84
2023/08/10 10:17:52;;;;;;;3.00;2.80;;;;;;;;;;5038264;28;20472;-84
2023/08/10 10:20:19;;;;;;;3.73;2.87;;;34.00;57.10;;;;;;5037315;28;20527;-81
2023/08/10 10:22:46;;;;;;;3.57;2.70;;;34.40;58.20;;;;;;5036059;28;22578;-84
2023/08/10 10:25:18;;;;;;;5.63;2.67;;;33.30;59.30;;;;;;5043661;28;20571;-81
2023/08/10 10:27:49;;;;;;;4.40;3.30;;;33.10;60.30;;;;;;5039342;28;20424;-80
2023/08/10 10:30:16;;;;;;;3.00;2.00;;;32.30;58.20;;;;;;5051253;28;20473;-82
2023/08/10 10:32:45;;;;;;;5.30;2.93;;;31.70;61.60;;;;;;5048241;28;20462;-82
2023/08/10 10:35:13;;;;;;;3.60;2.80;;;30.00;63.40;;;;;;5049655;28;20447;-81
2023/08/10 10:37:39;;;;;;;4.20;3.30;;;28.90;65.40;;;;;;5050411;28;20437;-83
2023/08/10 10:40:18;;;;;;;4.60;3.17;;;28.00;75.90;;;;;;5047480;28;20468;-83
2023/08/10 10:43:02;;;;;;;4.23;3.13;;;27.20;78.70;;;;;;5048389;28;20883;-82
2023/08/10 10:45:28;;;;;;;2.73;2.50;;;26.20;79.10;;;;;;5032313;28;20482;-82
2023/08/10 10:47:55;;;;;;;3.70;3.10;;;25.60;83.20;;;;;;5028925;28;20446;-82
2023/08/10 10:50:24;;;;;;;2.80;2.60;;;25.40;84.30;;;;;;5048792;28;20445;-84
2023/08/10 10:53:13;;;;;;;3.47;3.17;;;24.90;84.90;;;;;;5046899;28;21761;-83
2023/08/10 10:55:46;;;;;;;3.00;2.67;;;24.30;91.40;;;;;;5030939;28;21143;-82
2023/08/10 10:58:13;;;;;;;2.77;2.57;;;24.10;93.80;;;;;;5030884;28;20472;-83
2023/08/10 11:00:41;;;;;;;3.73;2.53;;;24.30;96.20;;;;;;5033150;28;20830;-83
2023/08/10 11:03:09;;;;;;;3.77;2.93;;;24.50;99.90;;;;;;5047571;28;20494;-81
2023/08/10 11:05:36;;;;;;;5.40;3.70;;;24.80;98.60;;;;;;5031478;28;20452;-84
2023/08/10 11:08:08;;;;;;;4.33;3.07;;;24.90;97.30;;;;;;5029523;28;20512;-82
2023/08/10 11:10:39;;;;;;;3.40;2.40;;;25.00;95.70;;;;;;5046929;28;20431;-81
2023/08/10 11:13:06;;;;;;;3.90;2.73;;;25.00;96.70;;;;;;5033760;28;20449;-84
2023/08/10 11:15:32;;;;;;;4.40;2.67;;;24.70;95.40;;;;;;5051794;28;20451;-82
2023/08/10 11:17:58;;;;;;;3.70;2.83;;;24.30;96.00;;;;;;5035265;28;20440;-80
2023/08/10 11:20:24;;;;;;;3.23;2.77;;;24.10;98.50;;;;;;5031521;28;20463;-83
2023/08/10 11:22:51;;;;;;;3.77;2.73;;;24.20;97.70;;;;;;5033254;28;20187;-84
2023/08/10 11:25:18;;;;;;;4.17;3.77;;;24.20;96.40;;;;;;5033707;28;20451;-84
2023/08/10 11:27:47;;;;;;;3.60;2.70;;;24.30;95.90;;;;;;5028954;28;20426;-83
2023/08/10 11:30:17;;;;;;;3.17;2.27;;;24.30;97.80;;;;;;5033141;28;20439;-81
2023/08/10 11:32:46;;;;;;;3.40;2.60;;;24.20;95.90;;;;;;5035427;28;20428;-83
2023/08/10 11:35:14;;;;;;;3.33;3.03;;;24.00;97.10;;;;;;5038117;28;21035;-82
2023/08/10 11:37:43;;;;;;;3.33;2.60;;;24.00;97.00;;;;;;5031006;28;20494;-80
2023/08/10 11:40:11;;;;;;;3.60;2.47;;;24.00;98.70;;;;;;5038110;28;20464;-79
2023/08/10 11:42:47;;;;;;;3.90;2.90;;;24.10;97.60;;;;;;5051049;28;20436;-86
2023/08/10 11:45:19;;;;;;;9.17;3.10;;;24.20;95.70;;;;;;5036890;28;20465;-83
2023/08/10 11:47:50;;;;;;;3.33;2.33;;;24.40;95.60;;;;;;5047999;28;20438;-84
2023/08/10 11:50:17;;;;;;;2.93;2.57;;;24.60;94.00;;;;;;5053823;28;20489;-83
2023/08/10 11:52:44;;;;;;;4.10;2.60;;;24.50;95.10;;;;;;5028893;28;20430;-86
2023/08/10 11:55:15;;;;;;;3.60;2.33;;;24.40;95.60;;;;;;5048499;28;20454;-84
2023/08/10 11:57:46;;;;;;;3.90;2.23;;;24.70;96.60;;;;;;5030563;28;20968;-83
2023/08/10 12:00:57;;;;;;;3.67;2.40;;;24.80;93.20;;;;;;5048585;28;20462;-83
2023/08/10 12:03:27;;;;;;;3.20;2.67;;;24.80;95.00;;;;;;5010260;28;20543;-83
2023/08/10 12:05:59;;;;;;;3.00;2.70;;;24.80;93.90;;;;;;5033335;28;20450;-83
2023/08/10 12:08:25;;;;;;;3.70;2.87;;;24.60;95.30;;;;;;5042318;28;20960;-82
2023/08/10 12:10:58;;;;;;;3.10;2.60;;;24.30;96.60;;;;;;5031717;28;20512;-83
2023/08/10 12:13:24;;;;;;;3.50;2.20;;;24.50;93.30;;;;;;5032605;28;20717;-84
2023/08/10 12:15:51;;;;;;;2.60;2.40;;;24.40;93.60;;;;;;5049910;28;20456;-82
2023/08/10 12:18:18;;;;;;;3.60;2.50;;;24.40;94.80;;;;;;5041704;28;20205;-83
2023/08/10 12:20:45;;;;;;;3.10;2.80;;;24.50;94.80;;;;;;5055758;28;20585;-82
2023/08/10 12:23:11;;;;;;;5.90;2.63;;;24.60;95.00;;;;;;5033613;28;20442;-82
2023/08/10 12:25:37;;;;;;;3.00;2.20;;;24.80;94.80;;;;;;5030806;28;20433;-82
2023/08/10 12:28:04;;;;;;;2.60;2.33;;;24.60;93.80;;;;;;5047151;28;20459;-85
2023/08/10 12:30:29;;;;;;;3.20;2.90;;;24.80;93.10;;;;;;5047186;28;20643;-82
2023/08/10 12:32:55;;;;;;;4.13;2.37;;;25.10;94.40;;;;;;5035240;28;20452;-81
2023/08/10 12:35:21;;;;;;;3.13;2.40;;;25.30;92.70;;;;;;5046406;28;20259;-84
2023/08/10 12:37:49;;;;;;;3.77;2.83;;;25.50;92.40;;;;;;5048188;28;20491;-83
2023/08/10 12:40:16;;;;;;;5.93;2.20;;;25.30;92.30;;;;;;5043828;28;20216;-82
2023/08/10 12:42:43;;;;;;;3.93;2.43;;;25.30;91.50;;;;;;5049046;28;20452;-82
2023/08/10 12:45:11;;;;;;;2.70;2.50;;;25.20;90.30;;;;;;5045826;28;20481;-83
2023/08/10 12:47:38;;;;;;;6.03;3.10;;;25.00;90.70;;;;;;5028498;28;20429;-82
2023/08/10 12:50:05;;;;;;;3.93;2.90;;;25.00;92.80;;;;;;5045371;28;20481;-83
2023/08/10 12:52:30;;;;;;;3.30;2.43;;;25.00;94.10;;;;;;5047542;28;20445;-83
2023/08/10 12:54:56;;;;;;;7.13;2.37;;;25.10;93.80;;;;;;5053320;28;20456;-80
2023/08/10 12:57:22;;;;;;;3.43;2.37;;;25.10;92.20;;;;;;5044821;28;20661;-83